Time;durP1;ratioP1;P1;durP2;ratioP2;P2;SDS_P1;SDS_P2;PMS_P1;PMS_P2;Temp;Humidity;BMP_temperature;BMP_pressure;BME280_temperature;BME280_humidity;BME280_pressure;Samples;Min_cycle;Max_cycle;Signal;HPM_P1;HPM_P2
2023/09/02 04:01:03;;;;;;;;;;;14.00;99.90;;;;;;5673925;23;19930;-75
2023/09/02 04:03:29;;;;;;;;;;;14.00;99.90;;;;;;5020125;28;20382;-78
2023/09/02 04:05:54;;;;;;;;;;;14.00;99.90;;;;;;5014303;28;19992;-80
2023/09/02 04:08:25;;;;;;;;;;;14.00;99.90;;;;;;5014763;28;20322;-77
2023/09/02 04:10:55;;;;;;;;;;;14.00;99.90;;;;;;5014668;28;19976;-79
2023/09/02 04:13:21;;;;;;;;;;;14.00;99.90;;;;;;5014310;28;19968;-77
2023/09/02 04:15:47;;;;;;;;;;;13.90;99.90;;;;;;5013964;28;19922;-78
2023/09/02 04:18:13;;;;;;;;;;;13.90;99.90;;;;;;5014187;28;20275;-78
2023/09/02 04:20:38;;;;;;;;;;;14.00;99.90;;;;;;5015150;28;20272;-79
2023/09/02 04:23:04;;;;;;;;;;;13.90;99.90;;;;;;5013871;28;19921;-79
2023/09/02 04:25:29;;;;;;;;;;;13.90;99.90;;;;;;5013919;28;19921;-76
2023/09/02 04:27:55;;;;;;;;;;;13.90;99.90;;;;;;5014370;28;20314;-79
2023/09/02 04:30:22;;;;;;;;;;;13.90;99.90;;;;;;5013817;28;19969;-78
2023/09/02 04:32:48;;;;;;;;;;;13.90;99.90;;;;;;5014517;28;19929;-79
2023/09/02 04:35:14;;;;;;;;;;;13.90;99.90;;;;;;5014197;28;19928;-78
2023/09/02 04:37:40;;;;;;;;;;;13.90;99.90;;;;;;5013542;28;20004;-76
2023/09/02 04:40:06;;;;;;;;;;;13.90;99.90;;;;;;5013570;28;19940;-77
2023/09/02 04:42:32;;;;;;;;;;;13.90;99.90;;;;;;5014045;28;19928;-81
2023/09/02 04:44:58;;;;;;;;;;;13.90;99.90;;;;;;5013438;28;20020;-76
2023/09/02 04:47:23;;;;;;;;;;;13.90;99.90;;;;;;5013372;28;19969;-76
2023/09/02 04:49:49;;;;;;;;;;;13.90;99.90;;;;;;5013274;28;19922;-76
2023/09/02 04:52:15;;;;;;;;;;;13.90;99.90;;;;;;5013418;28;19925;-77
2023/09/02 04:54:44;;;;;;;;;;;13.90;99.90;;;;;;5013370;28;20387;-75
2023/09/02 04:57:09;;;;;;;;;;;13.90;99.90;;;;;;5014965;28;20262;-78
2023/09/02 04:59:35;;;;;;;;;;;14.00;99.90;;;;;;5014033;28;19929;-78
2023/09/02 05:02:01;;;;;;;;;;;14.00;99.90;;;;;;5014110;28;19922;-77
2023/09/02 05:04:26;;;;;;;;;;;14.00;99.90;;;;;;5013827;28;19921;-76
2023/09/02 05:06:52;;;;;;;;;;;14.00;99.90;;;;;;5013619;28;19929;-76
2023/09/02 05:09:17;;;;;;;;;;;14.00;99.90;;;;;;5013038;28;19921;-79
2023/09/02 05:11:43;;;;;;;;;;;13.90;99.90;;;;;;5013645;28;19975;-80
2023/09/02 05:14:10;;;;;;;;;;;14.00;99.90;;;;;;5012569;28;21309;-79
2023/09/02 05:16:35;;;;;;;;;;;14.00;99.90;;;;;;5013553;28;19921;-77
2023/09/02 05:19:01;;;;;;;;;;;14.00;99.90;;;;;;5014015;28;19926;-77
2023/09/02 05:21:27;;;;;;;;;;;14.00;99.90;;;;;;5013578;28;19921;-79
2023/09/02 05:23:52;;;;;;;;;;;14.00;99.90;;;;;;5013150;28;20377;-77
2023/09/02 05:26:18;;;;;;;;;;;14.00;99.90;;;;;;5012847;28;19965;-77
2023/09/02 05:28:43;;;;;;;;;;;14.10;99.90;;;;;;5013922;28;20267;-77
2023/09/02 05:31:09;;;;;;;;;;;14.00;99.90;;;;;;5013767;28;19921;-77
2023/09/02 05:33:35;;;;;;;;;;;14.00;99.90;;;;;;5012820;28;19921;-76
2023/09/02 05:36:00;;;;;;;;;;;14.10;99.90;;;;;;5012860;28;19921;-75
2023/09/02 05:38:26;;;;;;;;;;;14.00;99.90;;;;;;5012608;28;20302;-79
2023/09/02 05:40:52;;;;;;;;;;;14.00;99.90;;;;;;5012691;28;19922;-78
2023/09/02 05:43:17;;;;;;;;;;;14.10;99.90;;;;;;5012894;28;19967;-77
2023/09/02 05:45:43;;;;;;;;;;;14.10;99.90;;;;;;4996186;28;20019;-76
2023/09/02 05:48:08;;;;;;;;;;;14.10;99.90;;;;;;5012632;28;19995;-76
2023/09/02 05:50:34;;;;;;;;;;;14.10;99.90;;;;;;5012512;28;19928;-78
2023/09/02 05:52:59;;;;;;;;;;;14.10;99.90;;;;;;5012805;28;19972;-76
2023/09/02 05:55:25;;;;;;;;;;;14.20;99.90;;;;;;5014341;28;19921;-77
2023/09/02 05:57:51;;;;;;;;;;;14.10;99.90;;;;;;5012517;28;20026;-74
2023/09/02 06:00:16;;;;;;;;;;;14.20;99.90;;;;;;5012838;28;19925;-79
2023/09/02 06:02:42;;;;;;;;;;;14.20;99.90;;;;;;5012442;28;20382;-79
2023/09/02 06:05:07;;;;;;;;;;;14.20;99.90;;;;;;5012325;28;19922;-75
2023/09/02 06:07:33;;;;;;;;;;;14.20;99.90;;;;;;5012743;28;20012;-77
2023/09/02 06:09:58;;;;;;;;;;;14.20;99.90;;;;;;5013814;28;19922;-80
2023/09/02 06:12:24;;;;;;;;;;;14.30;99.90;;;;;;5017645;28;19921;-78
2023/09/02 06:14:49;;;;;;;;;;;14.30;99.90;;;;;;5000018;28;19921;-76
2023/09/02 06:17:15;;;;;;;;;;;14.30;99.90;;;;;;5017411;28;20008;-77
2023/09/02 06:19:41;;;;;;;;;;;14.30;99.90;;;;;;5018775;28;19991;-78
2023/09/02 06:22:06;;;;;;;;;;;14.30;99.90;;;;;;5027256;28;20263;-76
2023/09/02 06:24:32;;;;;;;;;;;14.30;99.90;;;;;;5022190;28;19976;-78
2023/09/02 06:27:03;;;;;;;;;;;14.30;99.90;;;;;;4999853;28;19925;-77
2023/09/02 06:29:32;;;;;;;;;;;14.40;99.90;;;;;;5016038;28;19976;-74
2023/09/02 06:32:01;;;;;;;;;;;14.40;99.90;;;;;;5016018;28;20020;-76
2023/09/02 06:34:29;;;;;;;;;;;14.40;99.90;;;;;;5017596;28;19972;-80
2023/09/02 06:36:54;;;;;;;;;;;14.40;99.90;;;;;;5016168;28;19921;-77
2023/09/02 06:39:20;;;;;;;;;;;14.40;99.90;;;;;;5015627;28;19934;-75
2023/09/02 06:41:45;;;;;;;;;;;14.50;99.90;;;;;;5015725;28;19928;-79
2023/09/02 06:44:11;;;;;;;;;;;14.50;99.90;;;;;;5016065;28;19921;-75
2023/09/02 06:46:38;;;;;;;;;;;14.50;99.90;;;;;;4999529;28;20359;-78
2023/09/02 06:49:05;;;;;;;;;;;14.60;99.90;;;;;;5015370;28;20021;-79
2023/09/02 06:51:31;;;;;;;;;;;14.60;99.90;;;;;;5015329;28;20032;-79
2023/09/02 06:53:56;;;;;;;;;;;14.60;99.90;;;;;;5015668;28;20367;-77
2023/09/02 06:56:22;;;;;;;;;;;14.70;99.90;;;;;;4999366;28;19921;-79
2023/09/02 06:58:49;;;;;;;;;;;14.70;99.90;;;;;;5015357;28;19926;-78
2023/09/02 07:01:15;;;;;;;;;;;14.70;99.90;;;;;;5015766;28;19921;-79
2023/09/02 07:03:40;;;;;;;;;;;14.80;99.90;;;;;;4999140;28;20390;-79
2023/09/02 07:06:06;;;;;;;;;;;14.80;99.90;;;;;;5016328;28;19921;-79
2023/09/02 07:08:32;;;;;;;;;;;14.80;99.90;;;;;;5016451;28;19948;-76
2023/09/02 07:10:57;;;;;;;;;;;14.80;99.90;;;;;;5015037;28;19926;-80
2023/09/02 07:13:23;;;;;;;;;;;14.80;99.90;;;;;;5015016;28;20290;-78
2023/09/02 07:15:56;;;;;;;;;;;14.90;99.90;;;;;;5016196;28;19967;-76
2023/09/02 07:18:22;;;;;;;;;;;14.90;99.90;;;;;;5014956;28;19921;-76
2023/09/02 07:20:47;;;;;;;;;;;14.90;99.90;;;;;;5015952;28;20052;-79
2023/09/02 07:23:13;;;;;;;;;;;15.00;99.90;;;;;;5015112;28;20000;-78
2023/09/02 07:25:38;;;;;;;;;;;15.00;99.90;;;;;;5015183;28;20012;-77
2023/09/02 07:28:04;;;;;;;;;;;15.10;99.90;;;;;;5014677;28;20371;-77
2023/09/02 07:30:30;;;;;;;;;;;15.10;99.90;;;;;;5014606;28;19925;-76
2023/09/02 07:32:55;;;;;;;;;;;15.20;99.90;;;;;;5014604;28;19973;-76
2023/09/02 07:35:21;;;;;;;;;;;15.20;99.90;;;;;;5014919;28;20012;-80
2023/09/02 07:37:46;;;;;;;;;;;15.20;99.90;;;;;;5016060;28;20419;-77
2023/09/02 07:40:13;;;;;;;;;;;15.30;99.90;;;;;;5014449;28;19969;-74
2023/09/02 07:42:38;;;;;;;;;;;15.30;99.90;;;;;;5014568;28;20008;-76
2023/09/02 07:45:04;;;;;;;;;;;15.40;99.90;;;;;;5014947;28;19972;-79
2023/09/02 07:47:30;;;;;;;;;;;15.40;99.90;;;;;;5015383;28;19928;-80
2023/09/02 07:49:55;;;;;;;;;;;15.40;99.90;;;;;;5017779;28;20290;-77
2023/09/02 07:52:21;;;;;;;;;;;15.50;99.90;;;;;;5017367;28;19922;-79
2023/09/02 07:54:46;;;;;;;;;;;15.50;99.90;;;;;;5014481;28;19999;-76
2023/09/02 07:57:12;;;;;;;;;;;15.50;99.90;;;;;;5014273;28;19928;-76
2023/09/02 07:59:37;;;;;;;;;;;15.50;99.90;;;;;;5014299;28;19932;-76
2023/09/02 08:02:03;;;;;;;;;;;15.50;99.90;;;;;;5014477;28;19925;-76
2023/09/02 08:04:29;;;;;;;;;;;15.60;99.90;;;;;;5014269;28;20290;-81
2023/09/02 08:06:54;;;;;;;;;;;15.60;99.90;;;;;;5014267;28;19925;-79
2023/09/02 08:09:20;;;;;;;;;;;15.70;99.90;;;;;;5014194;28;19971;-78
2023/09/02 08:11:45;;;;;;;;;;;15.80;99.90;;;;;;5014097;28;19975;-79
2023/09/02 08:14:11;;;;;;;;;;;15.90;99.90;;;;;;5014051;28;19960;-78
2023/09/02 08:16:36;;;;;;;;;;;16.00;99.90;;;;;;5014020;28;19936;-77
2023/09/02 08:19:02;;;;;;;;;;;16.10;99.90;;;;;;5013816;28;20012;-80
2023/09/02 08:21:27;;;;;;;;;;;16.20;99.90;;;;;;5015089;28;19971;-79
2023/09/02 08:23:53;;;;;;;;;;;16.30;99.90;;;;;;5015119;28;19925;-77
2023/09/02 08:26:18;;;;;;;;;;;16.40;99.90;;;;;;5014043;28;19929;-79
2023/09/02 08:28:44;;;;;;;;;;;16.50;99.90;;;;;;5014076;28;19921;-80
2023/09/02 08:31:11;;;;;;;;;;;16.60;99.90;;;;;;5015182;28;20294;-81
2023/09/02 08:33:37;;;;;;;;;;;16.70;99.90;;;;;;4996621;28;20012;-76
2023/09/02 08:36:03;;;;;;;;;;;16.80;99.90;;;;;;5013671;28;19921;-77
2023/09/02 08:38:28;;;;;;;;;;;17.00;99.90;;;;;;5013376;28;19952;-78
2023/09/02 08:40:54;;;;;;;;;;;17.00;99.90;;;;;;5013454;28;19936;-80
2023/09/02 08:43:20;;;;;;;;;;;17.10;99.90;;;;;;5013483;28;19921;-80
2023/09/02 08:45:49;;;;;;;;;;;17.30;99.90;;;;;;4997075;28;19929;-77
2023/09/02 08:48:20;;;;;;;;;;;17.30;99.90;;;;;;5013734;28;19999;-76
2023/09/02 08:50:46;;;;;;;;;;;17.40;99.90;;;;;;5013712;28;20442;-80
2023/09/02 08:53:12;;;;;;;;;;;17.50;99.90;;;;;;5013333;28;19957;-78
2023/09/02 08:55:40;;;;;;;;;;;17.60;99.90;;;;;;5014811;28;19921;-79
2023/09/02 08:58:06;;;;;;;;;;;17.60;99.90;;;;;;5013760;28;19921;-80
2023/09/02 09:00:32;;;;;;;;;;;17.70;99.90;;;;;;4996911;28;20391;-83
2023/09/02 09:02:58;;;;;;;;;;;17.70;99.90;;;;;;5015469;28;19926;-79
2023/09/02 09:05:24;;;;;;;;;;;17.70;99.90;;;;;;5013267;28;19921;-84
2023/09/02 09:07:51;;;;;;;;;;;17.80;99.90;;;;;;5013197;28;20012;-79
2023/09/02 09:10:18;;;;;;;;;;;18.00;99.90;;;;;;5013140;28;19921;-79
2023/09/02 09:12:46;;;;;;;;;;;18.10;99.90;;;;;;5013190;28;20006;-80
2023/09/02 09:15:14;;;;;;;;;;;18.10;99.90;;;;;;5014127;28;20245;-76
2023/09/02 09:17:40;;;;;;;;;;;18.10;99.90;;;;;;5013427;28;19933;-80
2023/09/02 09:20:05;;;;;;;;;;;18.00;99.90;;;;;;5013187;28;19947;-84
2023/09/02 09:22:37;;;;;;;;;;;18.00;99.90;;;;;;5013136;28;19925;-78
2023/09/02 09:25:02;;;;;;;;;;;18.00;99.90;;;;;;5013161;28;20417;-83
2023/09/02 09:27:28;;;;;;;;;;;18.10;99.90;;;;;;5013195;28;19921;-79
2023/09/02 09:29:53;;;;;;;;;;;18.20;99.90;;;;;;4996610;28;19928;-82
2023/09/02 09:32:22;;;;;;;;;;;18.30;99.90;;;;;;5012984;28;19921;-76
2023/09/02 09:34:47;;;;;;;;;;;18.30;99.90;;;;;;5012884;28;19921;-82
2023/09/02 09:37:14;;;;;;;;;;;18.30;99.90;;;;;;5013741;28;19932;-80
2023/09/02 09:39:40;;;;;;;;;;;18.30;99.90;;;;;;5013183;28;19926;-81
2023/09/02 09:42:06;;;;;;;;;;;18.40;99.90;;;;;;5012961;28;19937;-82
2023/09/02 09:44:31;;;;;;;;;;;18.60;99.90;;;;;;5014164;28;20455;-83
2023/09/02 09:46:57;;;;;;;;;;;18.70;99.90;;;;;;5017693;28;20004;-76
2023/09/02 09:49:27;;;;;;;;;;;18.80;99.90;;;;;;5018007;28;20031;-81
2023/09/02 09:51:59;;;;;;;;;;;18.90;99.90;;;;;;5016992;28;19922;-80
2023/09/02 09:54:45;;;;;;;;;;;18.90;99.90;;;;;;5016599;28;19921;-80
2023/09/02 09:57:14;;;;;;;;;;;18.90;99.90;;;;;;5017782;28;19929;-80
2023/09/02 09:59:48;;;;;;;;;;;18.90;99.90;;;;;;5017685;28;20405;-81
2023/09/02 10:02:16;;;;;;;;;;;18.90;99.90;;;;;;5017614;28;19928;-81
2023/09/02 10:04:52;;;;;;;;;;;18.90;99.90;;;;;;5016576;28;20458;-82
2023/09/02 10:07:27;;;;;;;;;;;19.10;99.90;;;;;;5000686;28;20008;-81
2023/09/02 10:09:54;;;;;;;;;;;19.30;99.90;;;;;;5017974;28;19932;-81
2023/09/02 10:12:20;;;;;;;;;;;19.60;99.90;;;;;;5016235;28;20371;-80
2023/09/02 10:14:46;;;;;;;;;;;19.80;99.90;;;;;;5017678;28;19928;-80
2023/09/02 10:17:13;;;;;;;;;;;19.90;99.90;;;;;;5017178;28;19922;-80
2023/09/02 10:19:38;;;;;;;;;;;19.80;99.90;;;;;;5017588;28;19932;-80
2023/09/02 10:22:05;;;;;;;;;;;19.90;99.90;;;;;;5017483;28;20008;-81
2023/09/02 10:24:32;;;;;;;;;;;20.00;99.90;;;;;;5026665;28;19929;-79
2023/09/02 10:26:59;;;;;;;;;;;20.10;99.90;;;;;;5038047;28;20012;-80
2023/09/02 10:29:27;;;;;;;;;;;20.00;99.90;;;;;;5055907;28;19978;-74
2023/09/02 10:31:55;;;;;;;;;;;20.10;99.90;;;;;;5035065;28;19952;-82
2023/09/02 10:34:31;;;;;;;;;;;20.20;99.90;;;;;;5030761;28;19925;-76
2023/09/02 10:36:57;;;;;;;;;;;20.20;99.90;;;;;;5013228;28;19965;-78
2023/09/02 10:39:31;;;;;;;;;;;20.10;99.90;;;;;;5014367;28;19961;-79
2023/09/02 10:41:57;;;;;;;;;;;20.20;99.90;;;;;;5015757;28;19973;-84
2023/09/02 10:44:24;;;;;;;;;;;20.40;99.90;;;;;;5015625;28;19925;-79
2023/09/02 10:46:50;;;;;;;;;;;20.40;99.90;;;;;;5015059;28;20012;-77
2023/09/02 10:49:15;;;;;;;;;;;20.50;99.90;;;;;;5016444;28;19968;-81
2023/09/02 10:51:41;;;;;;;;;;;20.70;99.90;;;;;;5015888;28;20286;-79
2023/09/02 10:54:07;;;;;;;;;;;20.90;99.90;;;;;;5015808;28;20390;-80
2023/09/02 10:56:33;;;;;;;;;;;21.00;99.90;;;;;;4998890;28;19929;-78
2023/09/02 10:59:05;;;;;;;;;;;21.20;99.90;;;;;;5017068;28;19925;-80
2023/09/02 11:01:41;;;;;;;;;;;21.30;99.90;;;;;;5015797;28;19967;-81
2023/09/02 11:04:06;;;;;;;;;;;21.50;99.90;;;;;;5015936;28;19928;-80
2023/09/02 11:06:32;;;;;;;;;;;21.50;99.90;;;;;;5015650;28;19922;-81
2023/09/02 11:08:58;;;;;;;;;;;21.50;99.90;;;;;;5015731;28;19926;-78
2023/09/02 11:11:44;;;;;;;;;;;21.40;99.90;;;;;;5015631;28;19921;-78
2023/09/02 11:14:09;;;;;;;;;;;21.30;99.90;;;;;;5015588;28;19925;-78
2023/09/02 11:16:35;;;;;;;;;;;21.40;99.90;;;;;;5015599;28;19936;-79
2023/09/02 11:19:01;;;;;;;;;;;21.50;99.90;;;;;;5015472;28;19933;-78
2023/09/02 11:21:42;;;;;;;;;;;21.70;99.90;;;;;;5015548;28;20263;-79
2023/09/02 11:24:20;;;;;;;;;;;21.80;99.90;;;;;;4999613;28;19929;-78
2023/09/02 11:26:52;;;;;;;;;;;21.90;99.90;;;;;;4998856;28;19936;-78
2023/09/02 11:29:21;;;;;;;;;;;22.00;99.90;;;;;;5015227;28;19921;-81
2023/09/02 11:31:56;;;;;;;;;;;22.10;99.90;;;;;;5015286;28;19969;-80
2023/09/02 11:34:23;;;;;;;;;;;22.20;99.90;;;;;;5015247;28;19930;-81
2023/09/02 11:36:50;;;;;;;;;;;22.30;99.90;;;;;;5015225;28;19921;-80
2023/09/02 11:39:16;;;;;;;;;;;22.40;99.90;;;;;;5015379;28;19926;-79
2023/09/02 11:41:41;;;;;;;;;;;22.30;99.90;;;;;;5014945;28;19921;-78
2023/09/02 11:44:10;;;;;;;;;;;22.10;99.90;;;;;;4998754;28;19971;-81
2023/09/02 11:46:39;;;;;;;;;;;22.00;99.90;;;;;;5014948;28;19928;-79
2023/09/02 11:49:12;;;;;;;;;;;21.70;99.90;;;;;;5014890;28;20382;-81
2023/09/02 11:51:37;;;;;;;;;;;21.70;99.90;;;;;;5015139;28;20007;-81
2023/09/02 11:54:03;;;;;;;;;;;21.80;99.90;;;;;;5014987;28;19985;-82
2023/09/02 11:56:29;;;;;;;;;;;22.00;99.90;;;;;;5014752;28;19999;-76
2023/09/02 11:58:54;;;;;;;;;;;22.10;99.90;;;;;;5014457;28;19961;-76
2023/09/02 12:01:20;;;;;;;;;;;22.30;99.90;;;;;;4998437;28;20339;-79
2023/09/02 12:03:46;;;;;;;;;;;22.30;99.90;;;;;;5020978;28;19922;-76
2023/09/02 12:06:12;;;;;;;;;;;22.40;99.90;;;;;;5026252;28;19944;-75
2023/09/02 12:08:38;;;;;;;;;;;22.50;99.90;;;;;;5024499;28;19925;-77
2023/09/02 12:11:04;;;;;;;;;;;22.60;99.90;;;;;;5015909;28;20285;-80
2023/09/02 12:13:29;;;;;;;;;;;22.70;99.90;;;;;;4998092;28;20394;-79
2023/09/02 12:15:55;;;;;;;;;;;22.70;99.90;;;;;;5014538;28;19922;-83
2023/09/02 12:18:21;;;;;;;;;;;22.80;99.90;;;;;;4998038;28;19921;-81
2023/09/02 12:20:47;;;;;;;;;;;22.90;99.90;;;;;;5014237;28;19928;-83
2023/09/02 12:23:12;;;;;;;;;;;22.90;99.90;;;;;;5015428;28;19921;-79
2023/09/02 12:25:39;;;;;;;;;;;23.00;99.90;;;;;;5014680;28;19972;-79
2023/09/02 12:28:08;;;;;;;;;;;23.10;99.90;;;;;;5014231;28;19922;-80
2023/09/02 12:30:34;;;;;;;;;;;23.10;99.90;;;;;;5014633;28;19926;-83
2023/09/02 12:32:59;;;;;;;;;;;22.90;99.90;;;;;;5014414;28;20375;-82
2023/09/02 12:35:25;;;;;;;;;;;22.50;99.90;;;;;;5014240;28;19921;-80
2023/09/02 12:38:04;;;;;;;;;;;22.30;99.90;;;;;;5014054;28;19922;-82
2023/09/02 12:40:29;;;;;;;;;;;22.00;99.90;;;;;;5014968;28;20422;-83
2023/09/02 12:42:55;;;;;;;;;;;21.90;99.90;;;;;;5013794;28;19957;-83
2023/09/02 12:45:31;;;;;;;;;;;21.90;99.90;;;;;;5013954;28;20016;-77
2023/09/02 12:47:58;;;;;;;;;;;22.00;99.90;;;;;;5013585;28;19921;-79
2023/09/02 12:50:23;;;;;;;;;;;22.30;99.90;;;;;;5013628;28;19925;-79
2023/09/02 12:52:56;;;;;;;;;;;22.40;99.90;;;;;;4997303;28;19928;-79
2023/09/02 12:55:22;;;;;;;;;;;22.60;99.90;;;;;;5013635;28;19928;-83
2023/09/02 12:57:48;;;;;;;;;;;22.70;99.90;;;;;;5013437;28;19921;-80
2023/09/02 13:00:13;;;;;;;;;;;22.90;99.90;;;;;;5014416;28;19930;-81
2023/09/02 13:02:39;;;;;;;;;;;23.00;99.90;;;;;;5013268;28;19944;-79
2023/09/02 13:05:04;;;;;;;;;;;22.80;99.90;;;;;;5013568;28;19921;-80
2023/09/02 13:07:31;;;;;;;;;;;22.60;99.90;;;;;;5013278;28;20291;-81
2023/09/02 13:09:56;;;;;;;;;;;22.30;99.90;;;;;;5013211;28;19922;-79
2023/09/02 13:12:22;;;;;;;;;;;22.10;99.90;;;;;;5013131;28;19928;-79
2023/09/02 13:14:47;;;;;;;;;;;22.00;99.90;;;;;;5013059;28;19925;-80
2023/09/02 13:17:15;;;;;;;;;;;22.10;99.90;;;;;;5015056;28;20353;-80
2023/09/02 13:19:40;;;;;;;;;;;22.30;99.90;;;;;;5014177;28;19940;-81
2023/09/02 13:22:08;;;;;;;;;;;22.50;99.90;;;;;;5013018;28;19921;-77
2023/09/02 13:24:33;;;;;;;;;;;22.70;99.90;;;;;;5013040;28;19925;-82
2023/09/02 13:26:59;;;;;;;;;;;22.90;99.90;;;;;;5012928;28;19988;-79
2023/09/02 13:29:26;;;;;;;;;;;23.10;99.90;;;;;;5014235;28;19922;-81
2023/09/02 13:31:52;;;;;;;;;;;23.20;99.90;;;;;;5012861;28;19928;-79
2023/09/02 13:34:28;;;;;;;;;;;23.30;99.90;;;;;;5012853;28;20367;-81
2023/09/02 13:37:02;;;;;;;;;;;23.30;99.90;;;;;;5013232;28;20409;-81
2023/09/02 13:39:28;;;;;;;;;;;23.30;99.90;;;;;;5012721;28;20268;-77
2023/09/02 13:41:53;;;;;;;;;;;23.10;99.90;;;;;;5012698;28;19929;-80
2023/09/02 13:44:20;;;;;;;;;;;22.80;99.90;;;;;;5013088;28;20286;-81
2023/09/02 13:46:53;;;;;;;;;;;22.50;99.90;;;;;;5013037;28;19921;-81
2023/09/02 13:49:19;;;;;;;;;;;22.30;99.90;;;;;;5013058;28;20267;-80
2023/09/02 13:51:47;;;;;;;;;;;22.40;99.90;;;;;;5012939;28;19983;-75
2023/09/02 13:54:14;;;;;;;;;;;22.40;99.90;;;;;;5012742;28;20024;-76
2023/09/02 13:56:41;;;;;;;;;;;22.50;99.90;;;;;;5012967;28;19927;-83
2023/09/02 13:59:06;;;;;;;;;;;22.60;99.90;;;;;;5012458;28;19925;-82
2023/09/02 14:01:32;;;;;;;;;;;22.70;99.90;;;;;;4996392;28;19971;-82
2023/09/02 14:03:58;;;;;;;;;;;22.90;99.90;;;;;;5012525;28;19926;-80
2023/09/02 14:06:24;;;;;;;;;;;23.10;99.90;;;;;;5012534;28;19929;-79
2023/09/02 14:08:49;;;;;;;;;;;23.20;99.90;;;;;;5012864;28;19921;-78
2023/09/02 14:11:16;;;;;;;;;;;23.30;99.90;;;;;;5012485;28;20387;-76
2023/09/02 14:13:42;;;;;;;;;;;23.40;99.90;;;;;;5012751;28;20016;-78
2023/09/02 14:16:08;;;;;;;;;;;23.50;99.90;;;;;;5013589;28;20367;-78
2023/09/02 14:18:33;;;;;;;;;;;23.40;99.90;;;;;;5012396;28;19977;-81
2023/09/02 14:20:59;;;;;;;;;;;23.20;99.90;;;;;;5012448;28;19977;-78
2023/09/02 14:23:24;;;;;;;;;;;23.00;99.90;;;;;;5012530;28;19922;-81
2023/09/02 14:25:50;;;;;;;;;;;22.90;99.90;;;;;;5014448;28;20299;-82
2023/09/02 14:28:15;;;;;;;;;;;23.00;99.90;;;;;;5012502;28;19928;-78
2023/09/02 14:30:40;;;;;;;;;;;23.00;99.90;;;;;;5012671;28;19929;-78
2023/09/02 14:33:06;;;;;;;;;;;23.10;99.90;;;;;;5017875;28;20048;-82
2023/09/02 14:35:32;;;;;;;;;;;23.20;99.90;;;;;;5016052;28;19922;-79
2023/09/02 14:37:58;;;;;;;;;;;23.20;99.90;;;;;;5016473;28;19976;-81
2023/09/02 14:40:23;;;;;;;;;;;23.20;99.90;;;;;;5015800;28;19930;-77
2023/09/02 14:42:49;;;;;;;;;;;23.20;99.90;;;;;;5000022;28;19921;-80
2023/09/02 14:45:14;;;;;;;;;;;23.30;99.90;;;;;;5016025;28;20110;-76
2023/09/02 14:47:40;;;;;;;;;;;23.40;99.90;;;;;;5015885;28;19928;-80
2023/09/02 14:50:06;;;;;;;;;;;23.20;99.90;;;;;;5015878;28;19929;-81
2023/09/02 14:52:33;;;;;;;;;;;23.00;99.90;;;;;;4999457;28;19921;-79
2023/09/02 14:54:59;;;;;;;;;;;22.70;99.90;;;;;;5015896;28;19932;-80
2023/09/02 14:57:25;;;;;;;;;;;22.70;99.90;;;;;;5016342;28;19928;-77
2023/09/02 14:59:51;;;;;;;;;;;22.50;99.90;;;;;;5015877;28;19925;-80
2023/09/02 15:02:30;;;;;;;;;;;22.50;99.90;;;;;;5015642;28;20413;-80
2023/09/02 15:04:56;;;;;;;;;;;22.50;99.90;;;;;;5016044;28;19983;-78
2023/09/02 15:07:22;;;;;;;;;;;22.60;99.90;;;;;;5015620;28;19921;-78
2023/09/02 15:09:48;;;;;;;;;;;22.70;99.90;;;;;;5017359;28;20008;-76
2023/09/02 15:12:14;;;;;;;;;;;22.90;99.90;;;;;;5015584;28;19925;-80
2023/09/02 15:14:43;;;;;;;;;;;23.00;99.90;;;;;;5016448;28;19929;-80
2023/09/02 15:17:09;;;;;;;;;;;23.00;99.90;;;;;;5015375;28;19965;-79
2023/09/02 15:19:35;;;;;;;;;;;23.10;99.90;;;;;;5015241;28;20327;-80
2023/09/02 15:22:01;;;;;;;;;;;23.10;99.90;;;;;;4998754;28;19921;-78
2023/09/02 15:24:27;;;;;;;;;;;23.10;99.90;;;;;;5015138;28;19922;-79
2023/09/02 15:26:53;;;;;;;;;;;23.10;99.90;;;;;;5017235;28;19922;-80
2023/09/02 15:29:23;;;;;;;;;;;23.10;99.90;;;;;;5015593;28;19921;-82
2023/09/02 15:31:50;;;;;;;;;;;23.30;99.90;;;;;;5014917;28;19972;-79
2023/09/02 15:34:16;;;;;;;;;;;23.30;99.90;;;;;;5014958;28;19926;-79
2023/09/02 15:36:42;;;;;;;;;;;23.30;99.90;;;;;;5015000;28;19922;-76
2023/09/02 15:39:08;;;;;;;;;;;23.20;99.90;;;;;;5014997;28;19934;-81
2023/09/02 15:41:34;;;;;;;;;;;23.10;99.90;;;;;;5014729;28;19922;-80
2023/09/02 15:44:00;;;;;;;;;;;23.00;99.90;;;;;;5016422;28;20294;-78
2023/09/02 15:46:27;;;;;;;;;;;22.90;99.90;;;;;;5014755;28;20015;-77
2023/09/02 15:48:53;;;;;;;;;;;23.00;99.90;;;;;;5014782;28;20179;-78
2023/09/02 15:51:18;;;;;;;;;;;22.90;99.90;;;;;;5014957;28;19968;-82
2023/09/02 15:53:44;;;;;;;;;;;22.90;99.90;;;;;;5016213;28;19921;-81
2023/09/02 15:56:10;;;;;;;;;;;22.80;99.90;;;;;;5014567;28;19921;-81
2023/09/02 15:58:35;;;;;;;;;;;22.80;99.90;;;;;;5014477;28;19921;-79
2023/09/02 16:01:01;;;;;;;;;;;22.70;99.90;;;;;;5014470;28;19973;-77
2023/09/02 16:03:26;;;;;;;;;;;22.60;99.90;;;;;;5015079;28;20314;-78
2023/09/02 16:05:52;;;;;;;;;;;22.60;99.90;;;;;;5014352;28;19922;-78
2023/09/02 16:08:17;;;;;;;;;;;22.40;99.90;;;;;;5015759;28;19921;-76
2023/09/02 16:10:43;;;;;;;;;;;22.30;99.90;;;;;;5014554;28;19921;-81
2023/09/02 16:13:08;;;;;;;;;;;22.20;99.90;;;;;;5014640;28;19983;-81
2023/09/02 16:15:34;;;;;;;;;;;22.20;99.90;;;;;;5014426;28;19922;-78
2023/09/02 16:17:59;;;;;;;;;;;22.10;99.90;;;;;;5014476;28;19929;-81
2023/09/02 16:20:25;;;;;;;;;;;21.90;99.90;;;;;;5014007;28;19925;-79
2023/09/02 16:22:50;;;;;;;;;;;21.80;99.90;;;;;;5013906;28;19921;-79
2023/09/02 16:25:16;;;;;;;;;;;21.60;99.90;;;;;;5013962;28;19928;-78
2023/09/02 16:27:41;;;;;;;;;;;21.60;99.90;;;;;;5013972;28;19975;-81
2023/09/02 16:30:08;;;;;;;;;;;21.50;99.90;;;;;;5015830;28;19921;-77
2023/09/02 16:32:34;;;;;;;;;;;21.50;99.90;;;;;;5025180;28;20302;-76
2023/09/02 16:34:59;;;;;;;;;;;21.40;99.90;;;;;;5023776;28;19921;-77
2023/09/02 16:37:25;;;;;;;;;;;21.30;99.90;;;;;;5020545;28;20034;-80
2023/09/02 16:39:54;;;;;;;;;;;21.30;99.90;;;;;;5013797;28;19932;-79
2023/09/02 16:42:25;;;;;;;;;;;21.20;99.90;;;;;;5015201;28;20060;-79
2023/09/02 16:44:50;;;;;;;;;;;21.20;99.90;;;;;;5014113;28;19921;-81
2023/09/02 16:47:16;;;;;;;;;;;21.10;99.90;;;;;;4997742;28;19929;-78
2023/09/02 16:49:42;;;;;;;;;;;21.00;99.90;;;;;;5013848;28;19944;-78
2023/09/02 16:52:08;;;;;;;;;;;21.00;99.90;;;;;;4997221;28;19928;-77
2023/09/02 16:54:35;;;;;;;;;;;20.90;99.90;;;;;;5014077;28;19983;-78
2023/09/02 16:57:01;;;;;;;;;;;20.80;99.90;;;;;;5014087;28;19921;-81
2023/09/02 16:59:27;;;;;;;;;;;20.70;99.90;;;;;;5013893;28;20028;-80
2023/09/02 17:01:52;;;;;;;;;;;20.60;99.90;;;;;;5013326;28;19976;-79
2023/09/02 17:04:18;;;;;;;;;;;20.60;99.90;;;;;;5013561;28;19953;-81
2023/09/02 17:06:46;;;;;;;;;;;20.60;99.90;;;;;;5013510;28;19925;-79
2023/09/02 17:09:16;;;;;;;;;;;20.50;99.90;;;;;;5015057;28;20322;-78
2023/09/02 17:11:41;;;;;;;;;;;20.40;99.90;;;;;;5013494;28;20397;-78
2023/09/02 17:14:08;;;;;;;;;;;20.30;99.90;;;;;;5013676;28;19925;-76
2023/09/02 17:16:33;;;;;;;;;;;20.20;99.90;;;;;;5013317;28;20059;-79
2023/09/02 17:18:59;;;;;;;;;;;20.10;99.90;;;;;;4996782;28;20016;-80
2023/09/02 17:21:25;;;;;;;;;;;20.00;99.90;;;;;;5013222;28;19921;-79
2023/09/02 17:23:51;;;;;;;;;;;19.90;99.90;;;;;;5013537;28;19928;-83
2023/09/02 17:26:16;;;;;;;;;;;19.90;99.90;;;;;;5013391;28;19921;-78
2023/09/02 17:28:43;;;;;;;;;;;19.90;99.90;;;;;;5013630;28;19922;-83
2023/09/02 17:31:09;;;;;;;;;;;19.80;99.90;;;;;;5013142;28;19929;-79
2023/09/02 17:33:40;;;;;;;;;;;19.70;99.90;;;;;;4996832;28;19921;-76
2023/09/02 17:36:06;;;;;;;;;;;19.60;99.90;;;;;;5013186;28;20378;-80
2023/09/02 17:38:32;;;;;;;;;;;19.60;99.90;;;;;;5013725;28;19922;-80
2023/09/02 17:40:57;;;;;;;;;;;19.50;99.90;;;;;;4997064;28;19926;-80
2023/09/02 17:43:23;;;;;;;;;;;19.50;99.90;;;;;;5013118;28;19921;-78
2023/09/02 17:45:48;;;;;;;;;;;19.40;99.90;;;;;;5013387;28;19921;-78
2023/09/02 17:48:14;;;;;;;;;;;19.40;99.90;;;;;;5013235;28;19969;-78
2023/09/02 17:50:39;;;;;;;;;;;19.30;99.90;;;;;;5014235;28;19928;-80
2023/09/02 17:53:06;;;;;;;;;;;19.20;99.90;;;;;;5013431;28;20386;-82
2023/09/02 17:55:32;;;;;;;;;;;19.10;99.90;;;;;;5013214;28;19921;-80
2023/09/02 17:57:57;;;;;;;;;;;19.00;99.90;;;;;;5013178;28;19933;-78
2023/09/02 18:00:23;;;;;;;;;;;18.90;99.90;;;;;;5012946;28;19977;-81
2023/09/02 18:02:48;;;;;;;;;;;18.80;99.90;;;;;;5012959;28;20397;-79
2023/09/02 18:05:14;;;;;;;;;;;18.70;99.90;;;;;;5012826;28;19921;-79
2023/09/02 18:07:40;;;;;;;;;;;18.60;99.90;;;;;;5016212;28;19968;-77
2023/09/02 18:10:07;;;;;;;;;;;18.60;99.90;;;;;;5016914;28;20008;-76
2023/09/02 18:12:32;;;;;;;;;;;18.50;99.90;;;;;;5017976;28;20012;-82